Time;durP1;ratioP1;P1;durP2;ratioP2;P2;SDS_P1;SDS_P2;PMS_P1;PMS_P2;Temp;Humidity;BMP_temperature;BMP_pressure;BME280_temperature;BME280_humidity;BME280_pressure;Samples;Min_cycle;Max_cycle;Signal;HPM_P1;HPM_P2
2021/03/21 00:01:44;;;;;;;17.67;12.85;;;;;;;7.00;100.00;101513.28;5100176;28;20427;-72
2021/03/21 00:04:29;;;;;;;16.63;12.57;;;;;;;6.86;100.00;101518.34;5099327;28;20114;-74
2021/03/21 00:07:15;;;;;;;19.70;13.70;;;;;;;6.91;100.00;101532.28;5115067;28;20411;-73
2021/03/21 00:10:02;;;;;;;17.65;13.15;;;;;;;6.68;100.00;101522.47;5114264;28;20089;-73
2021/03/21 00:12:48;;;;;;;16.40;11.98;;;;;;;6.43;100.00;101534.34;5115085;28;20119;-73
2021/03/21 00:15:34;;;;;;;19.70;13.65;;;;;;;6.76;100.00;101523.44;5114041;28;20106;-72
2021/03/21 00:18:25;;;;;;;20.40;13.38;;;;;;;6.93;100.00;101521.88;5114562;28;20110;-72
2021/03/21 00:21:13;;;;;;;17.92;12.35;;;;;;;6.65;100.00;101518.13;5114859;28;20023;-72
2021/03/21 00:23:59;;;;;;;17.15;12.85;;;;;;;6.81;100.00;101525.25;5115212;28;20037;-73
2021/03/21 00:26:45;;;;;;;17.85;13.00;;;;;;;6.84;100.00;101520.06;5113917;28;20420;-73
2021/03/21 00:29:31;;;;;;;17.65;12.23;;;;;;;6.38;100.00;101524.75;5115049;28;20024;-73
2021/03/21 00:32:16;;;;;;;17.67;13.07;;;;;;;6.95;100.00;101520.19;5114104;28;20031;-73
2021/03/21 00:35:04;;;;;;;19.15;13.63;;;;;;;7.15;100.00;101523.84;5113573;28;20095;-72
2021/03/21 00:37:54;;;;;;;18.73;13.45;;;;;;;7.02;100.00;101527.16;5098568;28;20020;-73
2021/03/21 00:40:40;;;;;;;17.58;13.23;;;;;;;6.98;100.00;101528.88;5099223;28;20293;-73
2021/03/21 00:43:26;;;;;;;19.33;14.10;;;;;;;7.10;100.00;101531.59;5098645;28;20024;-72
2021/03/21 00:46:13;;;;;;;18.92;13.85;;;;;;;7.03;100.00;101527.19;5098610;28;20020;-72
2021/03/21 00:48:58;;;;;;;18.52;13.38;;;;;;;6.63;100.00;101525.03;5114790;28;20038;-72
2021/03/21 00:51:44;;;;;;;21.75;13.80;;;;;;;6.63;100.00;101518.97;5113469;28;20031;-72
2021/03/21 00:54:30;;;;;;;18.70;13.88;;;;;;;6.65;100.00;101514.63;5099639;28;20110;-73
2021/03/21 00:57:16;;;;;;;18.25;13.93;;;;;;;6.67;100.00;101507.72;5113540;28;20023;-73
2021/03/21 01:00:05;;;;;;;19.25;13.82;;;;;;;6.54;100.00;101511.91;5113886;28;20209;-73
2021/03/21 01:02:51;;;;;;;19.02;13.98;;;;;;;6.98;100.00;101504.56;5114427;28;20015;-72
2021/03/21 01:05:43;;;;;;;20.50;14.80;;;;;;;6.96;100.00;101503.69;5100450;28;20100;-73
2021/03/21 01:08:33;;;;;;;21.77;14.27;;;;;;;7.28;100.00;101497.03;5114833;28;20443;-73
2021/03/21 01:11:26;;;;;;;18.58;13.45;;;;;;;7.19;100.00;101481.31;5101240;28;20051;-73
2021/03/21 01:14:12;;;;;;;17.52;12.93;;;;;;;7.15;100.00;101471.72;5118054;28;20082;-73
2021/03/21 01:16:57;;;;;;;18.08;13.65;;;;;;;6.79;100.00;101464.44;5117836;28;20023;-73
2021/03/21 01:19:43;;;;;;;18.10;13.57;;;;;;;6.81;100.00;101464.47;5103003;28;20020;-73
2021/03/21 01:22:29;;;;;;;19.50;13.88;;;;;;;6.83;100.00;101470.56;5103285;28;20023;-72
2021/03/21 01:25:20;;;;;;;16.63;12.73;;;;;;;6.86;100.00;101475.78;5118668;28;20024;-74
2021/03/21 01:28:22;;;;;;;19.88;13.93;;;;;;;6.59;100.00;101480.75;5104336;28;20024;-73
2021/03/21 01:31:17;;;;;;;17.77;13.60;;;;;;;6.85;100.00;101480.16;5118465;28;20448;-73
2021/03/21 01:34:03;;;;;;;19.67;13.85;;;;;;;6.73;100.00;101481.75;5118541;28;20444;-73
2021/03/21 01:36:49;;;;;;;19.55;14.05;;;;;;;6.52;100.00;101476.31;5117381;28;20077;-72
2021/03/21 01:39:35;;;;;;;18.50;13.15;;;;;;;6.19;100.00;101474.19;5119423;27;20028;-73
2021/03/21 01:42:21;;;;;;;20.45;14.35;;;;;;;6.28;100.00;101470.84;5117322;28;20047;-73
2021/03/21 01:45:31;;;;;;;18.55;13.27;;;;;;;6.38;100.00;101476.16;5116963;28;20118;-72
2021/03/21 01:48:24;;;;;;;19.38;14.40;;;;;;;6.21;100.00;101469.00;5117099;28;20046;-73
2021/03/21 01:51:20;;;;;;;19.25;13.85;;;;;;;6.55;100.00;101468.53;5117932;28;20104;-73
2021/03/21 01:54:12;;;;;;;22.30;15.40;;;;;;;6.09;100.00;101485.34;5118343;28;20020;-73
2021/03/21 01:56:59;;;;;;;20.05;13.38;;;;;;;6.30;100.00;101487.34;5118028;28;20104;-73
2021/03/21 01:59:44;;;;;;;19.75;14.00;;;;;;;6.44;100.00;101477.97;5118530;28;20110;-73
2021/03/21 02:02:30;;;;;;;19.80;14.25;;;;;;;6.62;100.00;101485.94;5117259;28;20027;-72
2021/03/21 02:05:16;;;;;;;20.88;14.43;;;;;;;6.66;100.00;101456.50;5102849;28;20069;-73
2021/03/21 02:08:26;;;;;;;19.55;14.50;;;;;;;6.58;100.00;101479.84;5116590;28;20023;-72
2021/03/21 02:11:46;;;;;;;23.65;14.65;;;;;;;6.68;100.00;101460.88;5116360;28;20092;-72
2021/03/21 02:14:46;;;;;;;19.65;13.27;;;;;;;6.57;100.00;101464.22;5087192;28;20039;-73
2021/03/21 02:17:46;;;;;;;18.90;13.05;;;;;;;5.98;100.00;101467.88;5117876;28;20031;-72
2021/03/21 02:20:53;;;;;;;18.90;13.77;;;;;;;6.23;100.00;101472.50;5117341;28;20062;-72
2021/03/21 02:23:54;;;;;;;19.10;13.30;;;;;;;6.10;100.00;101491.44;5116028;28;20024;-73
2021/03/21 02:26:54;;;;;;;18.02;13.20;;;;;;;6.62;100.00;101493.75;5116616;28;20340;-72
2021/03/21 02:29:50;;;;;;;19.48;13.93;;;;;;;6.45;100.00;101496.19;5118004;28;20094;-73
2021/03/21 02:32:52;;;;;;;17.77;13.15;;;;;;;6.66;100.00;101443.47;5101752;28;20047;-73
2021/03/21 02:35:59;;;;;;;18.83;13.32;;;;;;;6.49;100.00;101443.31;5117417;28;20177;-73
2021/03/21 02:39:11;;;;;;;19.90;14.18;;;;;;;6.71;100.00;101450.47;5117410;27;20031;-72
2021/03/21 02:42:04;;;;;;;18.85;13.73;;;;;;;7.03;100.00;101461.22;5117237;28;20114;-72
2021/03/21 02:45:10;;;;;;;20.92;15.02;;;;;;;7.13;100.00;101465.63;5117153;28;20176;-73
2021/03/21 02:48:03;;;;;;;18.20;13.35;;;;;;;7.21;100.00;101474.38;5117070;28;20028;-72
2021/03/21 02:50:54;;;;;;;18.80;13.13;;;;;;;7.02;100.00;101473.34;5115408;28;20486;-74
2021/03/21 02:53:53;;;;;;;18.20;13.30;;;;;;;6.77;100.00;101473.09;5116820;28;20031;-72
2021/03/21 02:56:42;;;;;;;20.35;14.40;;;;;;;7.23;100.00;101450.06;5101406;28;20106;-72
2021/03/21 02:59:34;;;;;;;24.33;15.57;;;;;;;7.37;100.00;101458.00;5116252;28;20114;-73
2021/03/21 03:02:26;;;;;;;20.35;13.57;;;;;;;6.84;100.00;101420.22;5116224;28;20114;-73
2021/03/21 03:05:21;;;;;;;20.27;13.50;;;;;;;6.86;100.00;101434.13;5116826;28;20016;-73
2021/03/21 03:08:13;;;;;;;18.70;13.93;;;;;;;6.74;100.00;101437.50;5117220;28;20359;-73
2021/03/21 03:11:14;;;;;;;19.23;13.68;;;;;;;7.09;100.00;101456.03;5115260;28;20043;-73
2021/03/21 03:14:04;;;;;;;19.17;13.75;;;;;;;6.83;100.00;101447.13;5100086;28;20043;-73
2021/03/21 03:17:20;;;;;;;19.95;14.48;;;;;;;6.92;100.00;101426.38;5100891;28;20031;-73
2021/03/21 03:20:09;;;;;;;17.10;12.95;;;;;;;6.86;100.00;101434.13;5115242;28;20034;-72
2021/03/21 03:23:11;;;;;;;17.38;13.13;;;;;;;6.65;100.00;101429.59;5115210;28;20102;-73
2021/03/21 03:26:06;;;;;;;17.30;12.98;;;;;;;7.04;100.00;101429.97;5116112;28;20023;-73
2021/03/21 03:29:14;;;;;;;18.70;13.40;;;;;;;7.29;100.00;101454.47;5115087;28;20027;-73
2021/03/21 03:32:04;;;;;;;18.05;13.75;;;;;;;6.95;100.00;101452.44;5115813;28;20027;-72
2021/03/21 03:34:56;;;;;;;18.10;12.65;;;;;;;7.22;100.00;101442.22;5099930;28;20092;-73
2021/03/21 03:37:42;;;;;;;19.45;12.93;;;;;;;7.05;100.00;101426.50;5101280;28;20464;-72
2021/03/21 03:40:29;;;;;;;17.75;13.10;;;;;;;6.90;100.00;101417.66;5115068;28;20246;-73
2021/03/21 03:43:23;;;;;;;19.45;13.85;;;;;;;6.84;100.00;101421.09;5115927;28;20031;-73
2021/03/21 03:46:23;;;;;;;17.15;13.05;;;;;;;6.67;100.00;101427.88;5114865;28;20020;-73
2021/03/21 03:49:36;;;;;;;19.25;13.73;;;;;;;6.86;100.00;101447.13;5115739;28;20035;-73
2021/03/21 03:52:31;;;;;;;18.20;13.48;;;;;;;6.95;100.00;101450.69;5114547;28;20019;-72
2021/03/21 03:55:34;;;;;;;21.15;14.57;;;;;;;7.15;100.00;101469.13;5115394;28;20035;-73
2021/03/21 03:58:43;;;;;;;20.60;14.45;;;;;;;6.97;100.00;101472.44;5100345;28;20088;-72
2021/03/21 04:01:29;;;;;;;19.95;14.30;;;;;;;7.35;100.00;101468.41;5115362;28;20055;-73
2021/03/21 04:04:23;;;;;;;17.60;13.27;;;;;;;6.79;100.00;101450.56;5100505;28;20096;-72
2021/03/21 04:07:21;;;;;;;18.38;13.00;;;;;;;6.08;100.00;101441.97;5115165;28;20114;-72
2021/03/21 04:10:07;;;;;;;19.40;13.00;;;;;;;6.17;100.00;101433.41;5114925;28;20031;-72
2021/03/21 04:13:13;;;;;;;18.25;13.13;;;;;;;6.03;100.00;101437.56;5115053;28;20043;-73
2021/03/21 04:15:59;;;;;;;17.15;11.93;;;;;;;5.95;100.00;101444.41;5115143;28;20042;-72
2021/03/21 04:18:48;;;;;;;19.90;13.10;;;;;;;6.54;100.00;101423.41;5115243;28;20031;-73
2021/03/21 04:21:39;;;;;;;17.52;12.15;;;;;;;5.71;100.00;101434.53;5115196;28;20028;-73
2021/03/21 04:24:47;;;;;;;17.25;12.32;;;;;;;6.05;100.00;101441.06;5100044;28;20511;-74
2021/03/21 04:27:40;;;;;;;17.00;13.32;;;;;;;6.19;100.00;101445.56;5099152;28;20106;-73
2021/03/21 04:30:50;;;;;;;17.70;12.65;;;;;;;5.86;100.00;101436.50;5115153;28;20085;-73
2021/03/21 04:33:42;;;;;;;21.08;13.57;;;;;;;5.91;100.00;101453.88;5115104;28;20444;-73
2021/03/21 04:36:35;;;;;;;18.48;13.55;;;;;;;5.76;100.00;101438.06;5115252;28;20391;-72
2021/03/21 04:39:29;;;;;;;21.52;14.25;;;;;;;5.26;100.00;101437.34;5114929;28;20039;-73
2021/03/21 04:42:38;;;;;;;19.95;14.63;;;;;;;5.27;100.00;101420.91;5114898;28;20023;-73
2021/03/21 04:45:29;;;;;;;22.80;14.98;;;;;;;5.11;100.00;101418.06;5114278;28;20173;-73
2021/03/21 04:48:19;;;;;;;28.17;17.95;;;;;;;5.44;100.00;101423.75;5114966;28;20055;-73
2021/03/21 04:51:12;;;;;;;28.25;19.08;;;;;;;5.49;100.00;101419.50;5114570;28;20035;-73
2021/03/21 04:54:33;;;;;;;37.67;26.88;;;;;;;5.40;100.00;101416.75;5114409;28;20096;-73
2021/03/21 04:57:43;;;;;;;41.65;28.55;;;;;;;5.53;100.00;101423.00;5088197;28;20360;-73
2021/03/21 05:00:36;;;;;;;34.95;24.23;;;;;;;5.04;100.00;101424.88;5114823;28;20027;-73
2021/03/21 05:03:36;;;;;;;31.13;21.13;;;;;;;5.13;100.00;101442.31;5114082;28;20028;-72
2021/03/21 05:06:43;;;;;;;32.03;20.85;;;;;;;5.68;100.00;101444.00;5114387;28;20093;-72
2021/03/21 05:09:33;;;;;;;28.63;19.35;;;;;;;5.36;100.00;101443.56;5099322;28;20043;-73
2021/03/21 05:12:37;;;;;;;30.80;20.92;;;;;;;5.36;100.00;101438.34;5099217;28;20055;-73
2021/03/21 05:15:28;;;;;;;30.67;20.85;;;;;;;5.62;100.00;101446.53;5113277;28;20118;-72
2021/03/21 05:18:52;;;;;;;32.83;21.98;;;;;;;5.41;100.00;101439.28;5113641;28;20464;-74
2021/03/21 05:21:46;;;;;;;33.13;22.13;;;;;;;5.90;100.00;101454.75;5059265;28;20035;-73
2021/03/21 05:24:38;;;;;;;32.83;22.48;;;;;;;6.07;100.00;101449.75;5114423;28;20408;-72
2021/03/21 05:27:33;;;;;;;31.33;21.55;;;;;;;6.06;100.00;101461.03;5113748;28;20444;-73
2021/03/21 05:30:28;;;;;;;31.83;21.52;;;;;;;5.58;100.00;101458.59;5114556;28;20050;-72
2021/03/21 05:33:14;;;;;;;29.77;20.27;;;;;;;5.38;100.00;101473.91;5114188;28;20027;-72
2021/03/21 05:36:11;;;;;;;31.50;20.83;;;;;;;5.43;100.00;101486.97;5114382;28;20397;-73
2021/03/21 05:39:11;;;;;;;31.98;21.23;;;;;;;5.10;100.00;101481.22;5113129;28;20062;-74
2021/03/21 05:42:26;;;;;;;32.20;21.17;;;;;;;4.94;100.00;101493.06;5114375;28;20042;-73
2021/03/21 05:45:40;;;;;;;31.52;20.48;;;;;;;4.59;100.00;101475.97;5113113;28;20026;-74
2021/03/21 05:48:37;;;;;;;29.80;20.40;;;;;;;4.71;100.00;101478.81;5113212;28;20137;-72
2021/03/21 05:51:42;;;;;;;35.00;23.17;;;;;;;4.73;100.00;101484.91;5113157;28;20028;-72
2021/03/21 05:54:43;;;;;;;36.00;22.05;;;;;;;4.63;100.00;101475.19;5114303;28;20111;-73
2021/03/21 05:57:47;;;;;;;35.55;22.77;;;;;;;5.11;100.00;101473.44;5114044;28;20100;-72
2021/03/21 06:00:50;;;;;;;36.97;24.75;;;;;;;5.36;100.00;101482.53;5116789;28;20110;-72
2021/03/21 06:03:51;;;;;;;40.15;25.25;;;;;;;5.06;100.00;101459.53;5116679;28;20106;-72
2021/03/21 06:07:03;;;;;;;38.70;26.40;;;;;;;4.94;100.00;101464.50;5117102;28;20020;-73
2021/03/21 06:10:21;;;;;;;38.45;25.75;;;;;;;5.22;100.00;101450.25;5117685;28;20341;-73
2021/03/21 06:13:29;;;;;;;37.20;24.58;;;;;;;5.32;100.00;101453.00;5117194;28;20475;-73
2021/03/21 06:16:37;;;;;;;37.78;26.20;;;;;;;5.52;100.00;101453.31;5117283;28;20443;-73
2021/03/21 06:19:26;;;;;;;40.63;25.35;;;;;;;5.75;100.00;101457.13;5096151;28;20038;-73
2021/03/21 06:22:29;;;;;;;39.40;25.25;;;;;;;5.76;100.00;101437.19;5116847;28;20035;-73
2021/03/21 06:25:40;;;;;;;37.25;24.33;;;;;;;5.64;100.00;101453.50;5116266;28;20020;-73
2021/03/21 06:28:40;;;;;;;35.03;22.65;;;;;;;5.54;100.00;101445.56;5116608;28;20023;-73
2021/03/21 06:31:25;;;;;;;36.30;24.23;;;;;;;5.84;100.00;101436.47;5117272;28;20432;-73
2021/03/21 06:34:31;;;;;;;37.90;23.60;;;;;;;5.43;100.00;101441.06;5117769;28;20031;-73
2021/03/21 06:37:36;;;;;;;35.83;22.75;;;;;;;5.96;100.00;101435.75;5117120;28;20051;-72
2021/03/21 06:40:30;;;;;;;36.78;23.27;;;;;;;6.22;100.00;101435.19;5118207;28;20039;-73
2021/03/21 06:43:24;;;;;;;38.63;23.35;;;;;;;6.41;100.00;101428.47;5115946;28;20368;-72
2021/03/21 06:46:25;;;;;;;32.40;21.48;;;;;;;6.16;100.00;101431.66;5117792;28;20092;-72
2021/03/21 06:49:16;;;;;;;33.83;22.48;;;;;;;5.46;100.00;101429.81;5116506;28;20389;-72
2021/03/21 06:52:13;;;;;;;35.45;23.40;;;;;;;5.58;100.00;101432.59;5117247;28;20043;-72
2021/03/21 06:55:07;;;;;;;33.58;21.92;;;;;;;5.86;100.00;101426.94;5101884;28;20066;-73
2021/03/21 06:58:07;;;;;;;34.08;22.67;;;;;;;6.08;100.00;101428.09;5117069;28;20020;-72
2021/03/21 07:01:14;;;;;;;36.90;23.60;;;;;;;5.77;100.00;101423.31;5100757;28;20035;-72
2021/03/21 07:04:34;;;;;;;38.25;25.88;;;;;;;5.97;100.00;101429.69;5116662;28;20530;-73
2021/03/21 07:07:38;;;;;;;37.28;24.83;;;;;;;5.71;100.00;101421.53;5115394;28;20028;-74
2021/03/21 07:10:55;;;;;;;187.05;66.93;;;;;;;5.89;100.00;101437.41;5116216;28;20024;-73
2021/03/21 07:13:59;;;;;;;44.38;27.92;;;;;;;5.48;100.00;101447.19;5114813;28;20039;-73
2021/03/21 07:17:03;;;;;;;40.95;26.27;;;;;;;6.04;100.00;101434.13;5116755;28;20031;-72
2021/03/21 07:20:22;;;;;;;39.75;25.75;;;;;;;5.65;100.00;101438.75;5114874;28;20138;-72
2021/03/21 07:23:21;;;;;;;41.05;26.90;;;;;;;5.46;100.00;101422.03;5115421;28;20480;-73
2021/03/21 07:26:52;;;;;;;42.05;26.80;;;;;;;6.22;100.00;101418.75;5114952;28;20027;-72
2021/03/21 07:30:08;;;;;;;39.10;26.05;;;;;;;5.99;100.00;101415.00;5094289;28;20475;-72
2021/03/21 07:33:19;;;;;;;40.53;25.98;;;;;;;5.90;100.00;101433.09;5115513;28;20037;-73
2021/03/21 07:36:40;;;;;;;38.60;25.00;;;;;;;6.16;100.00;101419.53;5115168;28;20034;-73
2021/03/21 07:39:55;;;;;;;35.70;24.55;;;;;;;6.37;100.00;101439.69;5021410;28;20355;-73
2021/03/21 07:42:43;;;;;;;43.78;26.38;;;;;;;5.42;100.00;101445.38;5100359;28;20041;-74
2021/03/21 07:45:38;;;;;;;39.97;25.45;;;;;;;5.36;100.00;101436.63;5100230;28;20069;-73
2021/03/21 07:48:35;;;;;;;38.85;26.50;;;;;;;5.72;100.00;101430.19;5115205;28;20080;-72
2021/03/21 07:51:27;;;;;;;40.13;26.05;;;;;;;5.88;100.00;101417.47;5114471;28;20023;-73
2021/03/21 07:54:18;;;;;;;41.53;25.88;;;;;;;5.66;100.00;101410.19;5114972;28;20046;-73
2021/03/21 07:57:32;;;;;;;41.53;27.00;;;;;;;6.17;100.00;101418.66;5100720;28;20396;-73
2021/03/21 08:00:19;;;;;;;39.20;25.55;;;;;;;5.93;100.00;101422.69;5115148;28;20376;-73
2021/03/21 08:03:11;;;;;;;40.33;25.70;;;;;;;5.70;100.00;101443.16;5115519;28;20027;-73
2021/03/21 08:06:00;;;;;;;38.28;25.20;;;;;;;5.77;100.00;101436.31;5114783;28;20230;-73
2021/03/21 08:08:54;;;;;;;40.65;26.35;;;;;;;5.97;100.00;101434.88;5115596;28;20057;-73
2021/03/21 08:11:46;;;;;;;41.10;26.95;;;;;;;6.35;100.00;101433.63;5115281;28;20459;-73
2021/03/21 08:14:35;;;;;;;37.45;24.75;;;;;;;6.08;100.00;101422.91;5098981;28;20463;-73
2021/03/21 08:17:40;;;;;;;39.78;26.42;;;;;;;6.30;100.00;101424.91;5114621;28;20042;-72
2021/03/21 08:20:38;;;;;;;41.95;28.10;;;;;;;5.90;100.00;101427.88;5099201;28;20020;-73
2021/03/21 08:23:32;;;;;;;39.33;25.33;;;;;;;5.95;100.00;101427.06;5116071;28;20024;-72
2021/03/21 08:26:31;;;;;;;38.95;26.33;;;;;;;6.00;100.00;101422.81;5113914;28;20111;-73
2021/03/21 08:29:26;;;;;;;39.67;26.67;;;;;;;5.94;100.00;101424.47;5114094;28;20087;-73
2021/03/21 08:32:13;;;;;;;40.53;26.38;;;;;;;6.22;100.00;101413.53;5098951;28;20024;-73
2021/03/21 08:35:18;;;;;;;38.38;25.58;;;;;;;6.12;100.00;101406.47;5099110;28;20100;-73
2021/03/21 08:38:24;;;;;;;37.60;25.48;;;;;;;6.09;100.00;101406.41;5098571;28;20024;-73
2021/03/21 08:41:10;;;;;;;39.42;25.88;;;;;;;6.38;100.00;101403.28;5099829;28;20031;-72
2021/03/21 08:44:06;;;;;;;39.17;25.73;;;;;;;6.79;100.00;101393.28;5113716;28;20031;-73
2021/03/21 08:46:52;;;;;;;37.03;24.50;;;;;;;6.15;100.00;101391.75;5115196;28;20373;-73
2021/03/21 08:49:44;;;;;;;41.05;26.00;;;;;;;6.30;100.00;101393.69;5115367;27;20038;-72
2021/03/21 08:52:43;;;;;;;40.63;25.67;;;;;;;6.29;100.00;101379.78;5115046;28;20030;-73
2021/03/21 08:55:31;;;;;;;38.20;25.45;;;;;;;6.08;100.00;101378.66;5098625;28;20031;-72
2021/03/21 08:58:22;;;;;;;44.47;29.52;;;;;;;7.10;100.00;101387.41;5114465;28;20105;-75
2021/03/21 09:01:16;;;;;;;35.22;24.05;;;;;;;6.61;100.00;101374.88;5114741;28;20379;-73
2021/03/21 09:04:14;;;;;;;46.33;30.02;;;;;;;7.34;100.00;101379.75;5114138;28;20027;-73
2021/03/21 09:07:36;;;;;;;38.03;24.67;;;;;;;7.49;100.00;101380.75;5099408;28;20091;-73
2021/03/21 09:10:33;;;;;;;35.75;24.00;;;;;;;6.91;100.00;101375.16;5032984;28;20105;-72
2021/03/21 09:13:25;;;;;;;36.80;24.38;;;;;;;6.83;100.00;101377.66;5113203;28;20047;-73
2021/03/21 09:16:12;;;;;;;33.97;23.42;;;;;;;6.76;100.00;101373.28;5098796;28;20059;-72
2021/03/21 09:19:17;;;;;;;34.42;22.27;;;;;;;7.15;100.00;101378.78;5099021;28;20447;-77
2021/03/21 09:22:33;;;;;;;32.40;21.83;;;;;;;6.95;100.00;101369.94;5100333;28;20031;-73
2021/03/21 09:25:23;;;;;;;33.08;23.00;;;;;;;7.37;100.00;101361.53;5113113;28;20046;-72
2021/03/21 09:28:09;;;;;;;35.17;22.60;;;;;;;7.25;100.00;101356.25;5113931;28;20364;-75
2021/03/21 09:30:54;;;;;;;34.25;22.65;;;;;;;7.56;100.00;101340.78;5113454;28;20024;-73
2021/03/21 09:33:46;;;;;;;33.15;21.15;;;;;;;7.55;100.00;101330.38;5118882;28;20031;-75
2021/03/21 09:37:04;;;;;;;33.38;22.67;;;;;;;8.33;100.00;101334.09;5117446;28;20118;-73
2021/03/21 09:40:00;;;;;;;28.70;19.92;;;;;;;8.15;100.00;101334.03;5117324;28;20409;-73
2021/03/21 09:42:48;;;;;;;29.02;19.77;;;;;;;7.29;100.00;101327.63;5118483;28;20176;-73
2021/03/21 09:45:33;;;;;;;39.33;24.55;;;;;;;7.33;100.00;101332.00;5118286;28;20363;-73
2021/03/21 09:48:34;;;;;;;37.63;23.90;;;;;;;8.12;100.00;101320.13;5117487;28;20019;-72
2021/03/21 09:51:31;;;;;;;38.10;23.15;;;;;;;7.84;100.00;101334.81;5117954;28;20038;-73
2021/03/21 09:54:38;;;;;;;27.02;19.25;;;;;;;7.53;100.00;101332.97;5118333;28;20027;-73
2021/03/21 09:57:26;;;;;;;28.58;19.08;;;;;;;7.54;100.00;101324.28;5117914;28;20020;-76
2021/03/21 10:00:25;;;;;;;32.13;19.10;;;;;;;7.62;100.00;101314.75;5102935;28;20039;-74
2021/03/21 10:03:33;;;;;;;27.05;18.42;;;;;;;7.30;100.00;101337.19;5116600;28;20050;-75
2021/03/21 10:06:29;;;;;;;26.08;17.73;;;;;;;7.48;100.00;101326.00;5117793;28;20402;-75
2021/03/21 10:09:23;;;;;;;30.20;21.25;;;;;;;8.13;100.00;101321.84;5116626;28;20031;-75
2021/03/21 10:12:10;;;;;;;34.92;21.23;;;;;;;7.70;100.00;101319.97;5118254;28;20168;-75
2021/03/21 10:15:18;;;;;;;31.63;21.77;;;;;;;7.47;100.00;101304.25;5117473;28;20054;-74
2021/03/21 10:18:04;;;;;;;29.27;18.58;;;;;;;7.18;100.00;101310.19;5116342;28;20088;-74
2021/03/21 10:20:52;;;;;;;28.80;18.30;;;;;;;7.16;100.00;101302.34;5101499;28;20030;-75
2021/03/21 10:23:47;;;;;;;32.08;20.42;;;;;;;7.44;100.00;101287.72;5117892;28;20058;-74
2021/03/21 10:26:34;;;;;;;29.20;18.38;;;;;;;7.26;100.00;101293.72;5116384;28;20023;-75
2021/03/21 10:29:22;;;;;;;27.38;19.00;;;;;;;7.55;100.00;101302.53;5118335;28;20034;-75
2021/03/21 10:32:27;;;;;;;28.17;19.35;;;;;;;7.50;100.00;101293.84;5117298;28;20023;-75
2021/03/21 10:35:34;;;;;;;27.63;18.15;;;;;;;7.44;100.00;101293.81;5117909;28;20028;-74
2021/03/21 10:38:42;;;;;;;30.25;18.13;;;;;;;7.47;100.00;101288.59;5116445;28;20020;-75
2021/03/21 10:42:15;;;;;;;24.88;17.10;;;;;;;7.37;100.00;101286.84;5116412;28;20448;-74
2021/03/21 10:45:07;;;;;;;26.35;16.90;;;;;;;7.65;100.00;101275.66;5108764;28;20082;-74
2021/03/21 10:47:53;;;;;;;29.02;17.42;;;;;;;7.90;100.00;101264.41;5117271;28;20031;-75
2021/03/21 10:50:57;;;;;;;27.80;18.05;;;;;;;8.28;100.00;101262.72;5116934;28;20047;-73
2021/03/21 10:53:49;;;;;;;24.77;16.80;;;;;;;8.91;100.00;101264.41;5116392;28;20031;-73
2021/03/21 10:56:37;;;;;;;24.20;17.45;;;;;;;7.90;100.00;101247.88;5101633;28;20035;-73
2021/03/21 10:59:25;;;;;;;22.80;16.50;;;;;;;7.99;100.00;101246.16;5116171;28;20034;-74
2021/03/21 11:02:24;;;;;;;24.65;16.10;;;;;;;7.63;100.00;101250.44;5116768;28;20048;-74
2021/03/21 11:05:32;;;;;;;24.77;15.77;;;;;;;8.09;100.00;101242.69;5117180;28;20071;-74
2021/03/21 11:08:28;;;;;;;23.38;17.00;;;;;;;8.11;100.00;101235.72;5115549;28;20131;-75
2021/03/21 11:11:16;;;;;;;22.38;15.18;;;;;;;7.93;100.00;101237.44;5117072;28;20122;-73
2021/03/21 11:14:17;;;;;;;22.63;16.02;;;;;;;7.58;100.00;101236.50;5115159;28;20051;-76
2021/03/21 11:17:17;;;;;;;19.85;14.85;;;;;;;8.22;100.00;101236.66;5116168;28;20410;-73
2021/03/21 11:20:28;;;;;;;22.00;15.13;;;;;;;8.81;100.00;101233.97;5115151;28;20463;-74
2021/03/21 11:23:23;;;;;;;20.42;14.95;;;;;;;9.13;100.00;101221.69;5101997;28;20052;-74
2021/03/21 11:26:31;;;;;;;17.80;13.75;;;;;;;8.21;100.00;101218.38;5115386;28;20031;-73
2021/03/21 11:29:29;;;;;;;23.08;15.23;;;;;;;8.30;100.00;101207.91;5116596;28;20106;-74
2021/03/21 11:32:23;;;;;;;21.35;14.52;;;;;;;8.50;100.00;101212.28;5114895;28;20040;-75
2021/03/21 11:35:23;;;;;;;23.45;16.70;;;;;;;8.80;100.00;101187.84;5116589;28;20439;-74
2021/03/21 11:38:33;;;;;;;21.90;14.75;;;;;;;8.95;100.00;101195.59;5115721;28;20020;-75
2021/03/21 11:41:39;;;;;;;21.75;15.27;;;;;;;9.27;100.00;101206.81;5116711;28;20016;-75
2021/03/21 11:44:25;;;;;;;23.77;16.98;;;;;;;9.31;100.00;101190.22;5100110;28;20023;-74
2021/03/21 11:47:26;;;;;;;22.15;14.95;;;;;;;9.35;100.00;101186.72;5115864;28;20317;-75
2021/03/21 11:50:31;;;;;;;30.40;20.23;;;;;;;9.42;100.00;101173.63;5113762;28;20027;-75
2021/03/21 11:53:20;;;;;;;18.13;13.93;;;;;;;8.95;100.00;101161.63;5116142;28;20027;-74
2021/03/21 11:56:26;;;;;;;19.92;13.25;;;;;;;8.94;100.00;101159.91;5100009;28;20036;-74
2021/03/21 11:59:16;;;;;;;17.63;12.60;;;;;;;8.63;100.00;101151.28;5115960;28;20416;-74
2021/03/21 12:02:02;;;;;;;21.52;17.10;;;;;;;8.98;100.00;101148.56;5115161;28;20032;-73
2021/03/21 12:04:48;;;;;;;22.23;14.82;;;;;;;9.26;100.00;101144.94;5115991;28;20061;-74
2021/03/21 12:07:34;;;;;;;19.58;13.20;;;;;;;8.78;100.00;101143.44;5115071;28;20058;-73
2021/03/21 12:10:33;;;;;;;23.38;13.95;;;;;;;8.79;100.00;101137.31;5115137;28;20042;-73
2021/03/21 12:13:39;;;;;;;18.13;14.02;;;;;;;8.24;100.00;101120.03;5114085;28;20051;-73
2021/03/21 12:16:33;;;;;;;21.88;15.50;;;;;;;8.32;100.00;101130.50;5115690;28;20110;-74
2021/03/21 12:19:34;;;;;;;17.98;13.07;;;;;;;8.42;100.00;101124.38;5085414;28;20023;-74
2021/03/21 12:22:28;;;;;;;19.90;13.32;;;;;;;8.43;100.00;101113.03;5114345;28;20035;-74
2021/03/21 12:25:17;;;;;;;16.67;13.35;;;;;;;8.72;100.00;101100.78;5114759;28;20127;-73
2021/03/21 12:28:23;;;;;;;19.38;14.60;;;;;;;9.49;100.00;101106.44;5115817;28;20023;-74
2021/03/21 12:31:13;;;;;;;20.65;13.98;;;;;;;8.98;100.00;101102.41;5114342;28;20122;-72
2021/03/21 12:34:34;;;;;;;19.90;13.90;;;;;;;8.47;100.00;101102.59;5114255;28;20020;-74
2021/03/21 12:37:27;;;;;;;18.83;13.30;;;;;;;8.51;100.00;101109.53;5099105;28;20035;-73
2021/03/21 12:40:17;;;;;;;27.40;17.33;;;;;;;9.17;100.00;101108.41;5114444;28;20030;-73
2021/03/21 12:43:24;;;;;;;33.17;26.17;;;;;;;9.10;100.00;101106.69;5100926;28;20066;-74
2021/03/21 12:46:14;;;;;;;29.73;24.60;;;;;;;9.11;100.00;101105.81;5114612;28;20441;-74
2021/03/21 12:49:04;;;;;;;24.42;20.10;;;;;;;8.82;100.00;101110.31;5114623;28;20031;-73
2021/03/21 12:51:49;;;;;;;13.90;10.48;;;;;;;9.17;100.00;101100.56;5100526;28;20360;-74
2021/03/21 12:54:36;;;;;;;15.55;11.45;;;;;;;9.13;100.00;101098.84;5114255;28;20424;-74
2021/03/21 12:57:22;;;;;;;14.32;10.02;;;;;;;9.46;100.00;101093.38;5113615;28;20030;-74
2021/03/21 13:00:09;;;;;;;17.25;12.40;;;;;;;9.51;100.00;101068.94;5098970;28;20348;-74
2021/03/21 13:02:57;;;;;;;12.48;9.35;;;;;;;9.90;100.00;101059.88;5115032;28;20419;-74
2021/03/21 13:05:44;;;;;;;17.27;11.80;;;;;;;9.57;100.00;101065.41;5115421;28;20019;-73
2021/03/21 13:08:31;;;;;;;17.63;11.57;;;;;;;9.40;100.00;101069.88;5114618;28;20061;-75
2021/03/21 13:11:16;;;;;;;16.35;12.80;;;;;;;9.39;100.00;101073.38;5115082;28;20035;-74
2021/03/21 13:14:03;;;;;;;14.85;10.93;;;;;;;9.64;100.00;101061.84;5112899;28;20039;-76
2021/03/21 13:16:48;;;;;;;19.38;14.40;;;;;;;9.06;100.00;101060.53;5100902;28;20516;-74
2021/03/21 13:19:34;;;;;;;16.13;12.25;;;;;;;9.27;100.00;101060.41;5113093;28;20340;-74
2021/03/21 13:22:20;;;;;;;18.92;14.50;;;;;;;9.47;100.00;101053.28;5114351;28;20027;-75